Terminal Aerodrome Forecast
Issued by NWS Wilmington, OH

Current Version | Previous Version | Text Only | Print | Product List | Glossary On
Versions: 1 2 3 4 5 6 7 8 9 10 11 12 13 14 15 16 17 18 19 20 21 22 23 24 25
395
FTUS41 KILN 041720
TAFILN
TAF
KILN 041720Z 0418/0518 25016G24KT 6SM -SHRA BKN045 OVC080
     FM042000 25016G24KT 4SM -SHRA BR VCTS SCT015 OVC025CB
     FM042200 32013KT P6SM VCSH BKN015 OVC025
     FM050200 33012KT P6SM VCSH OVC015
     FM050600 32009KT P6SM VCSH OVC006
     FM051400 34010KT P6SM BKN025=

USA.gov is the U.S. government's official web portal to all federal, state and local government web resources and services.